Data for 11/24/2016

Time Sea-Level Adjusted Pressure Absolute Pressure Temperature Relative Humidity Dew Point   
(mb) (inHg) (mb) (inHg) (C) (F) (%) (C) (F)
00:05 1021 30.15 850 25.1 -0.6 31 88 -2.3 27.8
00:10 1021 30.15 850 25.1 -0.6 30.9 88 -2.4 27.7
00:15 1021 30.15 850 25.1 -0.6 30.9 87 -2.5 27.5
00:20 1021 30.15 850 25.1 -0.6 30.9 87 -2.5 27.5
00:25 1021 30.15 850 25.1 -0.6 30.9 87 -2.6 27.4
00:30 1021 30.15 850 25.1 -0.5 31.1 86 -2.6 27.2
00:35 1021 30.15 850 25.1 -0.5 31.1 84 -2.8 26.9
00:40 1021 30.15 850 25.1 -0.5 31.1 83 -3.1 26.5
00:45 1021 30.15 850 25.1 -0.4 31.2 82 -3.2 26.3
00:50 1021 30.15 850 25.1 -0.4 31.3 82 -3.2 26.3
00:55 1021 30.15 851 25.13 -0.4 31.3 81 -3.3 26
01:00 1022 30.18 851 25.13 -0.4 31.4 80 -3.4 25.9
01:05 1022 30.18 851 25.13 -0.4 31.3 80 -3.4 25.9
01:10 1022 30.18 851 25.13 -0.4 31.3 80 -3.5 25.7
01:15 1022 30.18 851 25.13 -0.5 31.1 81 -3.4 25.9
01:20 1022 30.18 851 25.13 -0.6 30.9 81 -3.4 25.9
01:25 1022 30.18 851 25.13 -0.7 30.8 82 -3.3 26.1
01:30 1022 30.18 851 25.13 -0.8 30.6 83 -3.4 26
01:35 1022 30.18 851 25.13 -0.8 30.6 82 -3.4 25.8
01:40 1022 30.18 851 25.13 -0.7 30.7 83 -3.3 26.1
01:45 1022 30.18 851 25.13 -0.9 30.5 84 -3.3 26.1
01:50 1022 30.18 851 25.13 -1 30.2 83 -3.5 25.7
01:55 1022 30.18 851 25.13 -1.1 30.1 82 -3.7 25.3
02:00 1022 30.18 851 25.13 -1.2 29.9 83 -3.7 25.4
02:05 1022 30.18 851 25.13 -1.2 29.8 81 -4 24.8
02:10 1022 30.18 851 25.13 -1.1 29.9 78 -4.5 23.9
02:15 1022 30.18 852 25.16 -1.1 30 78 -4.5 23.9
02:20 1022 30.18 852 25.16 -1.2 29.9 75 -5 23.1
02:25 1022 30.18 852 25.16 -1.2 29.9 76 -4.9 23.3
02:30 1023 30.21 852 25.16 -1.3 29.7 74 -5.3 22.5
02:35 1023 30.21 852 25.16 -1.3 29.6 72 -5.7 21.7
02:40 1023 30.21 852 25.16 -1.4 29.5 71 -6 21.1
02:45 1023 30.21 852 25.16 -1.5 29.2 70 -6.4 20.5
02:50 1023 30.21 852 25.16 -1.7 28.9 69 -6.7 20
02:55 1023 30.21 852 25.16 -1.8 28.7 70 -6.6 20.1
03:00 1023 30.21 852 25.16 -1.8 28.7 69 -6.7 19.9
03:05 1023 30.21 852 25.16 -1.9 28.6 72 -6.3 20.6
03:10 1023 30.21 852 25.16 -2 28.4 69 -6.9 19.6
03:15 1023 30.21 852 25.16 -1.9 28.5 72 -6.3 20.6
03:20 1023 30.21 852 25.16 -2 28.5 73 -6.2 20.8
03:25 1023 30.21 852 25.16 -2 28.4 71 -6.6 20.2
03:30 1023 30.21 853 25.19 -1.9 28.6 70 -6.7 20
03:35 1023 30.21 853 25.19 -1.8 28.7 66 -7.4 18.7
03:40 1023 30.21 853 25.19 -1.6 29.1 64 -7.5 18.4
03:45 1023 30.21 853 25.19 -1.5 29.3 64 -7.5 18.5
03:50 1024 30.24 853 25.19 -1.4 29.5 64 -7.4 18.7
03:55 1024 30.24 853 25.19 -1.5 29.4 64 -7.4 18.8
04:00 1024 30.24 853 25.19 -1.5 29.4 63 -7.6 18.4
04:05 1024 30.24 853 25.19 -1.4 29.5 64 -7.3 18.9
04:10 1024 30.24 853 25.19 -1.4 29.5 60 -8.2 17.3
04:15 1024 30.24 853 25.19 -1.3 29.6 60 -8 17.5
04:20 1024 30.24 853 25.19 -1.4 29.6 62 -7.8 18
04:25 1024 30.24 853 25.19 -1.4 29.4 66 -6.9 19.5
04:30 1024 30.24 853 25.19 -1.5 29.3 60 -8.3 17
04:35 1024 30.24 853 25.19 -1.6 29.2 59 -8.5 16.7
04:40 1024 30.24 853 25.19 -1.6 29 61 -8.2 17.2
04:45 1024 30.24 853 25.19 -1.6 29 60 -8.3 17
04:50 1024 30.24 853 25.19 -1.6 29.1 62 -8 17.5
04:55 1024 30.24 853 25.19 -1.7 28.9 64 -7.7 18.1
05:00 1024 30.24 853 25.19 -1.9 28.6 63 -8 17.5
05:05 1024 30.24 853 25.19 -2 28.3 64 -8 17.6
05:10 1024 30.24 853 25.19 -2.2 28.1 63 -8.3 17
05:15 1024 30.24 853 25.19 -2.3 27.9 64 -8.2 17.2
05:20 1024 30.24 853 25.19 -2.2 28 64 -8.1 17.4
05:25 1024 30.24 853 25.19 -2.3 27.9 64 -8.1 17.4
05:30 1024 30.24 853 25.19 -2.4 27.6 64 -8.3 17.1
05:35 1024 30.24 853 25.19 -2.6 27.4 58 -9.6 14.7
05:40 1024 30.24 853 25.19 -2.2 28 56 -9.9 14.3
05:45 1024 30.24 853 25.19 -2 28.5 55 -9.8 14.3
05:50 1024 30.24 853 25.19 -2 28.4 55 -9.8 14.4
05:55 1024 30.24 853 25.19 -1.9 28.6 55 -9.9 14.3
06:00 1024 30.24 853 25.19 -1.8 28.7 56 -9.5 14.9
06:05 1024 30.24 853 25.19 -2 28.5 56 -9.6 14.8
06:10 1024 30.24 853 25.19 -2.2 28.1 57 -9.6 14.7
06:15 1024 30.24 853 25.19 -2.3 27.9 58 -9.4 15
06:20 1024 30.24 853 25.19 -2.5 27.6 58 -9.5 14.8
06:25 1024 30.24 854 25.22 -2.6 27.3 60 -9.4 15
06:30 1024 30.24 854 25.22 -2.8 27 62 -9 15.8
06:35 1024 30.24 854 25.22 -3 26.6 61 -9.6 14.7
06:40 1024 30.24 854 25.22 -3.1 26.4 61 -9.5 14.8
06:45 1024 30.24 854 25.22 -3.3 26.1 61 -9.7 14.6
06:50 1024 30.24 854 25.22 -3.3 26.1 61 -9.7 14.5
06:55 1024 30.24 854 25.22 -3.3 26.1 63 -9.3 15.3
07:00 1025 30.27 854 25.22 -3.4 25.9 62 -9.6 14.7
07:05 1025 30.27 854 25.22 -3.3 26.1 65 -8.9 15.9
07:10 1025 30.27 854 25.22 -4 24.8 69 -8.9 16
07:15 1025 30.27 854 25.22 -4.4 24.1 72 -8.8 16.2
07:20 1025 30.27 854 25.22 -4.3 24.2 68 -9.3 15.3
07:25 1025 30.27 854 25.22 -3.7 25.4 66 -9.1 15.6
07:30 1025 30.27 854 25.22 -3.2 26.2 61 -9.6 14.7
07:35 1025 30.27 854 25.22 -2.7 27.1 62 -9.1 15.7
07:40 1025 30.27 854 25.22 -2.6 27.3 59 -9.5 14.9
07:45 1025 30.27 854 25.22 -2.5 27.4 60 -9.3 15.2
07:50 1025 30.27 854 25.22 -2.6 27.3 60 -9.2 15.4
07:55 1025 30.27 854 25.22 -2.7 27.1 63 -8.9 16
08:00 1025 30.27 854 25.22 -3 26.7 66 -8.5 16.7
08:05 1025 30.27 854 25.22 -3.5 25.6 70 -8.2 17.2
08:10 1025 30.27 854 25.22 -4.1 24.6 71 -8.6 16.5
08:15 1025 30.27 854 25.22 -4 24.7 71 -8.5 16.7
08:20 1025 30.27 854 25.22 -3.8 25.2 67 -9 15.8
08:25 1025 30.27 854 25.22 -3.3 26 66 -8.9 16
08:30 1025 30.27 854 25.22 -2.9 26.7 65 -8.6 16.5
08:35 1025 30.27 855 25.25 -2.6 27.2 63 -8.8 16.2
08:40 1025 30.27 855 25.25 -2.6 27.4 64 -8.5 16.6
08:45 1025 30.27 855 25.25 -2.2 28 64 -8.1 17.3
08:50 1025 30.27 855 25.25 -1.8 28.7 62 -8.2 17.2
08:55 1025 30.27 855 25.25 -2.1 28.2 64 -8 17.6
09:00 1025 30.27 855 25.25 -2.3 27.9 62 -8.7 16.4
09:05 1025 30.27 855 25.25 -2 28.5 62 -8.3 17
09:10 1025 30.27 855 25.25 -1.5 29.4 60 -8.3 17
09:15 1025 30.27 854 25.22 -1.9 28.6 61 -8.3 17
09:20 1025 30.27 854 25.22 -1.6 29.2 60 -8.3 17.1
09:25 1025 30.27 854 25.22 -1.6 29.2 60 -8.2 17.2
09:30 1025 30.27 854 25.22 -1.3 29.6 60 -8 17.5
09:35 1025 30.27 854 25.22 -1.3 29.7 60 -8 17.5
09:40 1025 30.27 854 25.22 -0.9 30.4 58 -8.1 17.4
09:45 1025 30.27 854 25.22 -0.6 31 56 -8.2 17.2
09:50 1025 30.27 854 25.22 -0.3 31.4 55 -8.3 17.1
09:55 1025 30.27 855 25.25 -0 31.9 55 -8 17.5
10:00 1025 30.27 855 25.25 -0.7 30.8 57 -8.2 17.2
10:05 1025 30.27 855 25.25 -0.7 30.8 55 -8.6 16.6
10:10 1025 30.27 855 25.25 -0.8 30.6 56 -8.6 16.6
10:15 1025 30.27 855 25.25 -0.6 31 55 -8.6 16.6
10:20 1025 30.27 855 25.25 -0.2 31.7 52 -9 15.9
10:25 1025 30.27 855 25.25 0.1 32.2 51 -8.9 16
10:30 1025 30.27 855 25.25 0.2 32.3 50 -9.2 15.5
10:35 1025 30.27 854 25.22 0.3 32.5 49 -9.2 15.4
10:40 1025 30.27 854 25.22 0.6 33 48 -9.1 15.5
10:45 1025 30.27 854 25.22 1.4 34.5 45 -9.3 15.3
10:50 1025 30.27 854 25.22 1.6 34.9 46 -8.8 16.2
10:55 1025 30.27 854 25.22 1.9 35.5 47 -8.3 17
11:00 1025 30.27 854 25.22 2.3 36.2 46 -8.2 17.2
11:05 1025 30.27 854 25.22 2.6 36.7 46 -7.9 17.7
11:10 1025 30.27 854 25.22 2.2 36 49 -7.5 18.5
11:15 1025 30.27 854 25.22 1.9 35.3 48 -8 17.6
11:20 1025 30.27 854 25.22 1.3 34.4 48 -8.5 16.7
11:25 1025 30.27 854 25.22 1.5 34.6 50 -7.9 17.7
11:30 1025 30.27 854 25.22 2.2 36 45 -8.5 16.6
11:35 1025 30.27 854 25.22 2.6 36.7 45 -8.2 17.3
11:40 1025 30.27 854 25.22 2.6 36.7 45 -8.2 17.3
11:45 1025 30.27 854 25.22 2.8 37.1 44 -8.2 17.2
11:50 1025 30.27 854 25.22 3.1 37.7 43 -8.2 17.3
11:55 1025 30.27 854 25.22 3.8 38.8 41 -8.2 17.3
12:00 1025 30.27 854 25.22 4.1 39.3 40 -8.5 16.7
12:05 1025 30.27 854 25.22 3.9 39.1 37 -9.6 14.8
12:10 1024 30.24 854 25.22 3.6 38.4 38 -9.4 15.1
12:15 1024 30.24 854 25.22 3.4 38.2 38 -9.6 14.8
12:20 1024 30.24 853 25.19 4.2 39.6 34 -10.2 13.6
12:25 1024 30.24 853 25.19 4.9 40.9 33 -10.2 13.7
12:30 1024 30.24 853 25.19 5.6 42.1 31 -10.2 13.7
12:35 1024 30.24 853 25.19 6.2 43.1 30 -10.2 13.6
12:40 1024 30.24 853 25.19 5.3 41.6 33 -9.8 14.4
12:45 1024 30.24 853 25.19 4.7 40.5 33 -10.1 13.8
12:50 1024 30.24 853 25.19 4.6 40.2 33 -10.2 13.6
12:55 1024 30.24 853 25.19 5.3 41.6 32 -10 14
13:00 1024 30.24 853 25.19 5.6 42.1 32 -9.7 14.6
13:05 1024 30.24 853 25.19 5.1 41.2 33 -9.9 14.2
13:10 1024 30.24 853 25.19 5.4 41.8 32 -9.9 14.2
13:15 1024 30.24 853 25.19 5.7 42.3 32 -9.8 14.4
13:20 1024 30.24 853 25.19 5.7 42.2 31 -10.1 13.8
13:25 1024 30.24 853 25.19 5.8 42.5 32 -9.7 14.5
13:30 1024 30.24 853 25.19 5.7 42.3 30 -10.5 13.1
13:35 1024 30.24 853 25.19 6.3 43.3 30 -10.1 13.7
13:40 1024 30.24 853 25.19 6.1 42.9 31 -9.7 14.5
13:45 1024 30.24 853 25.19 6 42.9 29 -10.7 12.8
13:50 1024 30.24 853 25.19 6.4 43.5 30 -9.9 14.1
13:55 1024 30.24 853 25.19 6.3 43.3 28 -11 12.2
14:00 1024 30.24 853 25.19 6.2 43.1 28 -10.9 12.4
14:05 1024 30.24 853 25.19 6.2 43.2 30 -10.3 13.5
14:10 1024 30.24 853 25.19 6.4 43.5 29 -10.5 13.1
14:15 1024 30.24 853 25.19 6.3 43.4 29 -10.4 13.4
14:20 1024 30.24 853 25.19 6.2 43.1 30 -10.3 13.4
14:25 1023 30.21 853 25.19 6.1 43 30 -10.3 13.5
14:30 1023 30.21 853 25.19 6.2 43.2 29 -10.4 13.4
14:35 1023 30.21 853 25.19 6.1 43 30 -10.3 13.4
14:40 1023 30.21 852 25.16 5.8 42.5 30 -10.6 13
14:45 1023 30.21 852 25.16 5.4 41.8 31 -10.6 13
14:50 1023 30.21 852 25.16 5.7 42.2 30 -10.6 13
14:55 1023 30.21 852 25.16 6.1 43 30 -10.3 13.4
15:00 1023 30.21 852 25.16 5.9 42.7 31 -10 13.9
15:05 1023 30.21 852 25.16 5.3 41.5 32 -9.9 14.1
15:10 1023 30.21 852 25.16 5 41 33 -10.1 13.9
15:15 1023 30.21 852 25.16 4.8 40.7 32 -10.7 12.8
15:20 1023 30.21 852 25.16 4.8 40.7 32 -10.4 13.2
15:25 1023 30.21 852 25.16 4.6 40.2 34 -10.1 13.8
15:30 1023 30.21 852 25.16 4.4 39.9 34 -10.3 13.5
15:35 1023 30.21 852 25.16 4.5 40 33 -10.4 13.3
15:40 1023 30.21 852 25.16 4.7 40.5 33 -10.4 13.2
15:45 1023 30.21 852 25.16 4.8 40.7 33 -10.3 13.5
15:50 1023 30.21 852 25.16 4.6 40.3 34 -9.9 14.2
15:55 1023 30.21 852 25.16 4.3 39.7 35 -9.8 14.3
16:00 1023 30.21 852 25.16 4 39.2 36 -9.9 14.2
16:05 1023 30.21 852 25.16 3.5 38.3 39 -9.3 15.2
16:10 1023 30.21 852 25.16 3.1 37.5 40 -9.3 15.2
16:15 1023 30.21 852 25.16 2.6 36.8 40 -9.5 14.9
16:20 1023 30.21 852 25.16 2.4 36.3 43 -8.9 15.9
16:25 1023 30.21 852 25.16 2.1 35.7 45 -8.7 16.3
16:30 1023 30.21 852 25.16 1.8 35.2 48 -8.2 17.3
16:35 1023 30.21 852 25.16 1.4 34.5 50 -7.8 17.9
16:40 1023 30.21 852 25.16 1 33.7 53 -7.6 18.4
16:45 1023 30.21 852 25.16 0.7 33.2 54 -7.6 18.3
16:50 1023 30.21 852 25.16 0.5 32.9 55 -7.5 18.6
16:55 1023 30.21 852 25.16 0.3 32.5 56 -7.6 18.4
17:00 1023 30.21 852 25.16 0.2 32.3 56 -7.6 18.3
17:05 1023 30.21 852 25.16 0.2 32.3 56 -7.7 18.2
17:10 1023 30.21 852 25.16 0 32 56 -7.7 18.2
17:15 1023 30.21 852 25.16 -0.1 31.8 57 -7.7 18.1
17:20 1023 30.21 852 25.16 -0.1 31.8 56 -7.9 17.8
17:25 1023 30.21 852 25.16 -0.2 31.6 57 -7.7 18.2
17:30 1023 30.21 852 25.16 -0.2 31.6 56 -7.9 17.8
17:35 1023 30.21 852 25.16 -0.3 31.5 57 -7.7 18.1
17:40 1023 30.21 852 25.16 -0.4 31.3 57 -8 17.7
17:45 1023 30.21 852 25.16 -0.4 31.2 56 -8.1 17.4
17:50 1023 30.21 852 25.16 -0.5 31.1 57 -8 17.5
17:55 1023 30.21 852 25.16 -0.6 31 56 -8.3 17.1
18:00 1023 30.21 852 25.16 -0.6 31 56 -8.3 17
18:05 1023 30.21 852 25.16 -0.6 30.9 55 -8.5 16.8
18:10 1023 30.21 852 25.16 -0.6 30.8 56 -8.5 16.7
18:15 1023 30.21 852 25.16 -0.7 30.8 56 -8.4 16.8
18:20 1023 30.21 852 25.16 -0.7 30.7 56 -8.5 16.7
18:25 1023 30.21 852 25.16 -0.8 30.6 56 -8.4 16.9
18:30 1023 30.21 852 25.16 -0.9 30.4 57 -8.4 16.9
18:35 1023 30.21 852 25.16 -0.8 30.6 56 -8.5 16.6
18:40 1023 30.21 852 25.16 -0.7 30.8 56 -8.3 17
18:45 1023 30.21 852 25.16 -0.9 30.4 57 -8.4 16.9
18:50 1023 30.21 852 25.16 -1 30.2 57 -8.6 16.6
18:55 1023 30.21 852 25.16 -1.1 30.1 58 -8.4 16.9
19:00 1023 30.21 852 25.16 -1.2 29.9 58 -8.4 16.9
19:05 1023 30.21 852 25.16 -1.3 29.6 58 -8.4 16.8
19:10 1023 30.21 852 25.16 -1.2 29.8 57 -8.7 16.4
19:15 1023 30.21 852 25.16 -1 30.1 57 -8.5 16.7
19:20 1023 30.21 852 25.16 -1 30.2 57 -8.5 16.7
19:25 1023 30.21 852 25.16 -1 30.3 57 -8.5 16.8
19:30 1023 30.21 852 25.16 -0.9 30.3 57 -8.4 16.8
19:35 1023 30.21 852 25.16 -1 30.2 58 -8.3 17.1
19:40 1023 30.21 852 25.16 -1.1 30 58 -8.3 17
19:45 1023 30.21 852 25.16 -1.1 30.1 57 -8.5 16.8
19:50 1023 30.21 852 25.16 -0.9 30.4 56 -8.5 16.7
19:55 1023 30.21 852 25.16 -0.8 30.5 57 -8.4 16.9
20:00 1023 30.21 852 25.16 -0.9 30.4 57 -8.4 16.9
20:05 1023 30.21 852 25.16 -0.9 30.4 57 -8.3 17
20:10 1023 30.21 852 25.16 -0.9 30.3 57 -8.3 17
20:15 1022 30.18 852 25.16 -1 30.2 57 -8.5 16.8
20:20 1022 30.18 852 25.16 -0.9 30.4 57 -8.4 16.9
20:25 1022 30.18 852 25.16 -0.8 30.5 57 -8.4 16.9
20:30 1022 30.18 852 25.16 -0.9 30.5 56 -8.5 16.7
20:35 1022 30.18 852 25.16 -0.7 30.7 56 -8.5 16.7
20:40 1022 30.18 852 25.16 -0.5 31 55 -8.6 16.6
20:45 1022 30.18 852 25.16 -0.6 31 56 -8.4 16.9
20:50 1022 30.18 851 25.13 -0.6 30.9 56 -8.4 16.9
20:55 1022 30.18 852 25.16 -0.7 30.7 56 -8.3 17
21:00 1022 30.18 852 25.16 -0.6 30.9 55 -8.5 16.7
21:05 1022 30.18 851 25.13 -0.6 30.9 56 -8.3 17
21:10 1022 30.18 851 25.13 -0.8 30.6 57 -8.3 17.1
21:15 1022 30.18 852 25.16 -1 30.2 59 -8.1 17.5
21:20 1022 30.18 852 25.16 -1.3 29.7 59 -8.3 17.1
21:25 1022 30.18 851 25.13 -1.3 29.6 59 -8.3 17.1
21:30 1022 30.18 852 25.16 -1.2 29.9 58 -8.3 17
21:35 1022 30.18 851 25.13 -1.1 30 58 -8.3 17.1
21:40 1022 30.18 852 25.16 -1.2 29.9 59 -8.2 17.2
21:45 1022 30.18 851 25.13 -1.2 29.9 59 -8.3 17.1
21:50 1022 30.18 851 25.13 -1.1 30.1 58 -8.2 17.2
21:55 1022 30.18 851 25.13 -1 30.2 59 -8 17.6
22:00 1022 30.18 851 25.13 -1.4 29.5 62 -7.8 17.9
22:05 1022 30.18 852 25.16 -1.8 28.8 62 -8.1 17.4
22:10 1022 30.18 852 25.16 -1.7 28.9 62 -8 17.5
22:15 1022 30.18 852 25.16 -1.7 29 62 -8.1 17.5
22:20 1022 30.18 852 25.16 -1.8 28.8 63 -7.9 17.8
22:25 1022 30.18 852 25.16 -1.7 28.9 61 -8.3 17.1
22:30 1023 30.21 852 25.16 -1.5 29.3 59 -8.4 16.8
22:35 1022 30.18 852 25.16 -1.1 30 57 -8.5 16.7
22:40 1022 30.18 852 25.16 -1 30.2 59 -8.1 17.5
22:45 1022 30.18 852 25.16 -1.3 29.7 61 -7.9 17.8
22:50 1022 30.18 852 25.16 -1.6 29.1 61 -8.1 17.4
22:55 1022 30.18 852 25.16 -1.7 28.9 60 -8.6 16.5
23:00 1022 30.18 851 25.13 -1.6 29.1 61 -8.1 17.3
23:05 1022 30.18 851 25.13 -1.8 28.8 62 -8.1 17.4
23:10 1022 30.18 852 25.16 -2.1 28.3 63 -8.2 17.3
23:15 1022 30.18 852 25.16 -2.2 28.1 62 -8.5 16.8
23:20 1022 30.18 852 25.16 -2 28.5 62 -8.3 17.1
23:25 1022 30.18 852 25.16 -2 28.5 60 -8.7 16.4
23:30 1022 30.18 852 25.16 -1.8 28.7 60 -8.6 16.5
23:35 1022 30.18 851 25.13 -1.9 28.6 60 -8.6 16.6
23:40 1022 30.18 851 25.13 -1.9 28.6 61 -8.4 16.9
23:45 1022 30.18 851 25.13 -2.3 27.9 63 -8.4 16.9
23:50 1022 30.18 852 25.16 -2.4 27.8 63 -8.6 16.6
23:55 1022 30.18 851 25.13 -2 28.4 60 -8.7 16.4
24:00 1022 30.18 851 25.13 -1.9 28.6 61 -8.5 16.6